Time;durP1;ratioP1;P1;durP2;ratioP2;P2;SDS_P1;SDS_P2;PMS_P1;PMS_P2;Temp;Humidity;BMP_temperature;BMP_pressure;BME280_temperature;BME280_humidity;BME280_pressure;Samples;Min_cycle;Max_cycle;Signal;HPM_P1;HPM_P2
2021/11/10 00:02:03;;;;;;;0.90;0.65;;;;;;;;;;4824233;29;32448;-66
2021/11/10 00:04:30;;;;;;;1.05;0.93;;;;;;;;;;4828760;29;32380;-66
2021/11/10 00:06:58;;;;;;;1.20;0.75;;;;;;;;;;4828365;29;34014;-66
2021/11/10 00:09:24;;;;;;;2.08;0.98;;;;;;;;;;4827836;29;32634;-66
2021/11/10 00:11:53;;;;;;;0.63;0.63;;;;;;;;;;4829008;29;32458;-67
2021/11/10 00:14:19;;;;;;;1.30;0.68;;;;;;;;;;4828837;29;32290;-67
2021/11/10 00:16:46;;;;;;;1.35;0.82;;;;;;;;;;4828015;29;33925;-69
2021/11/10 00:19:12;;;;;;;0.73;0.73;;;;;;;;;;4828783;29;32447;-67
2021/11/10 00:21:39;;;;;;;0.65;0.65;;;;;;;;;;4828451;29;32532;-67
2021/11/10 00:24:08;;;;;;;0.98;0.98;;;;;;;;;;4828309;29;32534;-68
2021/11/10 00:26:34;;;;;;;0.63;0.63;;;;;;;;;;4829317;29;32493;-69
2021/11/10 00:29:01;;;;;;;2.28;0.70;;;;;;;;;;4827255;29;33934;-69
2021/11/10 00:31:28;;;;;;;0.55;0.55;;;;;;;;;;4828315;29;32474;-67
2021/11/10 00:33:54;;;;;;;1.77;0.68;;;;;;;;;;4828271;29;32505;-67
2021/11/10 00:36:21;;;;;;;0.57;0.57;;;;;;;;;;4828207;29;32435;-69
2021/11/10 00:38:48;;;;;;;1.02;0.65;;;;;;;;;;4828179;29;34768;-67
2021/11/10 00:41:16;;;;;;;0.77;0.73;;;;;;;;;;4828569;29;32456;-69
2021/11/10 00:43:43;;;;;;;2.40;0.82;;;;;;;;;;4827300;29;32557;-68
2021/11/10 00:46:10;;;;;;;0.52;0.52;;;;;;;;;;4828491;29;32409;-67
2021/11/10 00:48:37;;;;;;;0.50;0.50;;;;;;;;;;4827678;29;32333;-68
2021/11/10 00:51:04;;;;;;;0.50;0.50;;;;;;;;;;4827991;29;35156;-68
2021/11/10 00:53:30;;;;;;;0.90;0.88;;;;;;;;;;4828415;29;32487;-67
2021/11/10 00:55:57;;;;;;;0.47;0.45;;;;;;;;;;4828493;29;32476;-68
2021/11/10 00:58:25;;;;;;;0.57;0.57;;;;;;;;;;4827769;29;32601;-68
2021/11/10 01:00:52;;;;;;;1.52;0.50;;;;;;;;;;4827726;29;35052;-68
2021/11/10 01:03:20;;;;;;;1.77;0.85;;;;;;;;;;4821528;29;33058;-68
2021/11/10 01:05:46;;;;;;;0.63;0.63;;;;;;;;;;4827222;29;32493;-67
2021/11/10 01:08:13;;;;;;;1.30;0.50;;;;;;;;;;4828084;29;32355;-67
2021/11/10 01:10:40;;;;;;;0.73;0.73;;;;;;;;;;4823060;29;32571;-68
2021/11/10 01:13:07;;;;;;;0.43;0.43;;;;;;;;;;4827646;29;35206;-66
2021/11/10 01:15:35;;;;;;;0.85;0.50;;;;;;;;;;4827883;29;32585;-66
2021/11/10 01:18:02;;;;;;;0.88;0.63;;;;;;;;;;4827183;29;32384;-67
2021/11/10 01:20:29;;;;;;;1.58;0.98;;;;;;;;;;4827738;29;32385;-66
2021/11/10 01:22:56;;;;;;;0.80;0.70;;;;;;;;;;4826173;29;35258;-67
2021/11/10 01:25:23;;;;;;;0.47;0.45;;;;;;;;;;4827600;29;32270;-66
2021/11/10 01:27:50;;;;;;;1.38;0.77;;;;;;;;;;4827414;29;32860;-68
2021/11/10 01:30:17;;;;;;;0.70;0.63;;;;;;;;;;4826531;29;32610;-66
2021/11/10 01:32:45;;;;;;;0.63;0.55;;;;;;;;;;4827623;29;32400;-66
2021/11/10 01:35:12;;;;;;;2.80;0.85;;;;;;;;;;4826570;29;35169;-66
2021/11/10 01:37:39;;;;;;;4.00;0.80;;;;;;;;;;4827888;29;32632;-66
2021/11/10 01:40:08;;;;;;;0.63;0.63;;;;;;;;;;4827686;29;32447;-64
2021/11/10 01:42:37;;;;;;;0.68;0.68;;;;;;;;;;4827387;29;32275;-65
2021/11/10 01:45:06;;;;;;;1.05;0.77;;;;;;;;;;4827097;29;35179;-66
2021/11/10 01:47:32;;;;;;;2.00;0.45;;;;;;;;;;4828019;29;32763;-65
2021/11/10 01:50:01;;;;;;;1.50;0.80;;;;;;;;;;4826918;29;32400;-67
2021/11/10 01:52:27;;;;;;;0.45;0.45;;;;;;;;;;4827471;29;32396;-67
2021/11/10 01:54:55;;;;;;;0.70;0.70;;;;;;;;;;4826718;29;32630;-65
2021/11/10 01:57:22;;;;;;;0.52;0.52;;;;;;;;;;4826442;29;34222;-66
2021/11/10 02:00:00;;;;;;;0.73;0.73;;;;;;;;;;4825903;29;32698;-66
2021/11/10 02:02:30;;;;;;;0.75;0.75;;;;;;;;;;4830591;29;32468;-66
2021/11/10 02:04:57;;;;;;;1.73;0.65;;;;;;;;;;4827980;29;32699;-66
2021/11/10 02:07:26;;;;;;;0.73;0.73;;;;;;;;;;4829778;29;34146;-66
2021/11/10 02:09:52;;;;;;;1.08;0.88;;;;;;;;;;4830070;29;32447;-66
2021/11/10 02:12:19;;;;;;;1.55;0.70;;;;;;;;;;4829370;29;32382;-66
2021/11/10 02:14:46;;;;;;;0.57;0.52;;;;;;;;;;4824909;29;32659;-66
2021/11/10 02:17:16;;;;;;;1.33;0.63;;;;;;;;;;4830081;29;32384;-66
2021/11/10 02:19:43;;;;;;;0.55;0.55;;;;;;;;;;4828837;29;34431;-66
2021/11/10 02:22:14;;;;;;;0.90;0.63;;;;;;;;;;4824795;29;32364;-67
2021/11/10 02:24:42;;;;;;;2.83;0.73;;;;;;;;;;4829788;29;32515;-66
2021/11/10 02:27:16;;;;;;;0.52;0.52;;;;;;;;;;4829521;29;32448;-67
2021/11/10 02:29:43;;;;;;;0.65;0.65;;;;;;;;;;4829963;29;34295;-69
2021/11/10 02:32:11;;;;;;;0.63;0.43;;;;;;;;;;4829384;29;32697;-66
2021/11/10 02:34:39;;;;;;;0.68;0.52;;;;;;;;;;4829040;29;32564;-66
2021/11/10 02:37:06;;;;;;;3.28;0.52;;;;;;;;;;4829759;29;32281;-66
2021/11/10 02:39:36;;;;;;;2.03;0.68;;;;;;;;;;4829737;29;32515;-68
2021/11/10 02:42:04;;;;;;;1.88;0.98;;;;;;;;;;4827555;29;34854;-67
2021/11/10 02:44:30;;;;;;;0.65;0.65;;;;;;;;;;4829507;29;32455;-68
2021/11/10 02:46:57;;;;;;;1.00;0.63;;;;;;;;;;4829032;29;32255;-66
2021/11/10 02:49:24;;;;;;;0.90;0.50;;;;;;;;;;4828400;29;32402;-66
2021/11/10 02:51:57;;;;;;;0.93;0.80;;;;;;;;;;4828775;29;35507;-66
2021/11/10 02:54:24;;;;;;;1.15;0.50;;;;;;;;;;4828611;29;32642;-66
2021/11/10 02:56:53;;;;;;;1.00;0.85;;;;;;;;;;4828892;29;32358;-66
2021/11/10 02:59:20;;;;;;;1.02;0.98;;;;;;;;;;4829420;29;32517;-65
2021/11/10 03:01:47;;;;;;;4.63;0.82;;;;;;;;;;4829418;29;32533;-67
2021/11/10 03:04:23;;;;;;;1.10;0.85;;;;;;;;;;4751020;29;45960;-67
2021/11/10 03:06:51;;;;;;;2.47;1.10;;;;;;;;;;4829167;29;33059;-69
2021/11/10 03:09:18;;;;;;;1.23;1.02;;;;;;;;;;4827137;29;32567;-70
2021/11/10 03:11:45;;;;;;;1.38;0.52;;;;;;;;;;4811019;29;32732;-68
2021/11/10 03:14:14;;;;;;;1.92;1.17;;;;;;;;;;4827943;29;34210;-67
2021/11/10 03:16:41;;;;;;;3.67;1.17;;;;;;;;;;4826736;29;32352;-69
2021/11/10 03:19:08;;;;;;;0.95;0.73;;;;;;;;;;4827303;29;32441;-68
2021/11/10 03:21:35;;;;;;;1.23;0.63;;;;;;;;;;4827002;29;32446;-68
2021/11/10 03:24:02;;;;;;;2.25;1.05;;;;;;;;;;4820213;29;32534;-68
2021/11/10 03:26:29;;;;;;;4.38;0.85;;;;;;;;;;4827799;29;34071;-68
2021/11/10 03:28:56;;;;;;;1.92;1.83;;;;;;;;;;4828300;29;32446;-67
2021/11/10 03:31:24;;;;;;;3.40;1.10;;;;;;;;;;4823064;29;32390;-68
2021/11/10 03:33:50;;;;;;;2.50;0.93;;;;;;;;;;4827220;29;32452;-70
2021/11/10 03:36:17;;;;;;;3.05;0.65;;;;;;;;;;4828527;29;34501;-68
2021/11/10 03:38:43;;;;;;;1.60;0.95;;;;;;;;;;4811384;29;32539;-68
2021/11/10 03:41:10;;;;;;;1.52;1.15;;;;;;;;;;4828597;29;32363;-68
2021/11/10 03:43:37;;;;;;;1.73;0.63;;;;;;;;;;4828833;29;32409;-68
2021/11/10 03:46:03;;;;;;;0.98;0.80;;;;;;;;;;4828581;29;32517;-69
2021/11/10 03:48:32;;;;;;;1.88;1.25;;;;;;;;;;4826806;29;36049;-70
2021/11/10 03:50:58;;;;;;;1.55;1.35;;;;;;;;;;4827208;29;32550;-68
2021/11/10 03:53:25;;;;;;;2.47;0.73;;;;;;;;;;4826411;29;32425;-68
2021/11/10 03:55:51;;;;;;;1.02;0.90;;;;;;;;;;4827137;29;32455;-68
2021/11/10 03:58:18;;;;;;;5.18;0.98;;;;;;;;;;4828836;29;35380;-68
2021/11/10 04:00:45;;;;;;;4.30;0.73;;;;;;;;;;4828080;29;32478;-68
2021/11/10 04:03:12;;;;;;;1.65;1.55;;;;;;;;;;4826984;29;32462;-68
2021/11/10 04:05:42;;;;;;;1.42;0.77;;;;;;;;;;4828208;29;32395;-68
2021/11/10 04:08:09;;;;;;;1.67;0.82;;;;;;;;;;4828108;29;32595;-69
2021/11/10 04:10:37;;;;;;;;;;;;;;;;;;4827277;29;35930;-69
2021/11/10 04:13:04;;;;;;;1.35;0.82;;;;;;;;;;4828642;29;32488;-68
2021/11/10 04:15:31;;;;;;;0.75;0.75;;;;;;;;;;4828609;29;32382;-68
2021/11/10 04:17:57;;;;;;;1.40;0.93;;;;;;;;;;4826997;29;32594;-68
2021/11/10 04:20:24;;;;;;;1.23;1.02;;;;;;;;;;4828334;29;34188;-68
2021/11/10 04:22:52;;;;;;;0.85;0.85;;;;;;;;;;4828141;29;32468;-68
2021/11/10 04:25:19;;;;;;;1.50;0.73;;;;;;;;;;4826547;29;32495;-68
2021/11/10 04:27:46;;;;;;;0.75;0.73;;;;;;;;;;4810812;29;32468;-68
2021/11/10 04:30:13;;;;;;;1.02;0.73;;;;;;;;;;4828439;29;32400;-69
2021/11/10 04:32:40;;;;;;;1.00;0.77;;;;;;;;;;4827431;29;34747;-70
2021/11/10 04:35:09;;;;;;;1.30;1.02;;;;;;;;;;4823378;29;32795;-69
2021/11/10 04:37:36;;;;;;;1.20;0.85;;;;;;;;;;4827517;29;32393;-69
2021/11/10 04:40:08;;;;;;;1.10;0.82;;;;;;;;;;4828634;29;32547;-69
2021/11/10 04:42:35;;;;;;;3.13;0.93;;;;;;;;;;4822498;29;34444;-68
2021/11/10 04:45:06;;;;;;;3.22;0.82;;;;;;;;;;4828468;29;32417;-68
2021/11/10 04:47:33;;;;;;;2.75;1.73;;;;;;;;;;4827318;29;32312;-69
2021/11/10 04:50:00;;;;;;;1.17;0.80;;;;;;;;;;4826224;29;33171;-68
2021/11/10 04:52:27;;;;;;;2.40;1.20;;;;;;;;;;4827649;29;32385;-68
2021/11/10 04:54:53;;;;;;;3.30;1.13;;;;;;;;;;4827882;29;34373;-69
2021/11/10 04:57:21;;;;;;;1.40;1.08;;;;;;;;;;4827825;29;32596;-69
2021/11/10 04:59:48;;;;;;;1.38;0.93;;;;;;;;;;4828243;29;32287;-69
2021/11/10 05:02:24;;;;;;;1.08;0.98;;;;;;;;;;4828311;29;32361;-69
2021/11/10 05:04:53;;;;;;;1.05;0.95;;;;;;;;;;4810220;29;34843;-68
2021/11/10 05:07:20;;;;;;;2.17;0.75;;;;;;;;;;4826935;29;32416;-69
2021/11/10 05:09:48;;;;;;;3.08;1.05;;;;;;;;;;4826099;29;33003;-68
2021/11/10 05:12:15;;;;;;;1.27;0.63;;;;;;;;;;4826844;29;32611;-69
2021/11/10 05:14:43;;;;;;;4.20;1.02;;;;;;;;;;4827820;29;32522;-69
2021/11/10 05:17:09;;;;;;;1.55;1.23;;;;;;;;;;4826758;29;35526;-68
2021/11/10 05:19:36;;;;;;;1.33;0.82;;;;;;;;;;4827652;29;32465;-68
2021/11/10 05:22:03;;;;;;;1.10;0.95;;;;;;;;;;4826093;29;32538;-68
2021/11/10 05:24:30;;;;;;;8.55;0.82;;;;;;;;;;4826797;29;32459;-69
2021/11/10 05:26:57;;;;;;;2.65;0.82;;;;;;;;;;4810405;29;34599;-68
2021/11/10 05:29:23;;;;;;;3.33;1.02;;;;;;;;;;4825805;29;33024;-68
2021/11/10 05:31:51;;;;;;;2.08;1.15;;;;;;;;;;4825688;29;32370;-70
2021/11/10 05:34:18;;;;;;;1.60;0.85;;;;;;;;;;4827052;29;32377;-69
2021/11/10 05:36:45;;;;;;;1.88;1.08;;;;;;;;;;4826642;29;32560;-68
2021/11/10 05:39:11;;;;;;;2.42;1.27;;;;;;;;;;4827549;29;34559;-68
2021/11/10 05:41:38;;;;;;;2.08;1.02;;;;;;;;;;4827282;29;32490;-68
2021/11/10 05:44:05;;;;;;;1.55;1.30;;;;;;;;;;4819693;29;33020;-69
2021/11/10 05:46:31;;;;;;;5.07;1.52;;;;;;;;;;4826060;29;32746;-68
2021/11/10 05:48:59;;;;;;;1.50;0.98;;;;;;;;;;4826773;29;34201;-68
2021/11/10 05:51:26;;;;;;;2.28;1.02;;;;;;;;;;4825733;29;32448;-69
2021/11/10 05:53:54;;;;;;;2.25;0.82;;;;;;;;;;4826975;29;32289;-68
2021/11/10 05:56:22;;;;;;;1.70;0.95;;;;;;;;;;4827013;29;32429;-68
2021/11/10 05:58:49;;;;;;;2.40;1.17;;;;;;;;;;4826867;29;32534;-68
2021/11/10 06:01:17;;;;;;;1.23;0.82;;;;;;;;;;4826985;29;35760;-69
2021/11/10 06:03:44;;;;;;;3.05;0.90;;;;;;;;;;4825671;29;32507;-68
2021/11/10 06:06:12;;;;;;;3.33;0.90;;;;;;;;;;4826820;29;32556;-69
2021/11/10 06:08:38;;;;;;;3.63;1.13;;;;;;;;;;4827344;29;32472;-68
2021/11/10 06:11:06;;;;;;;2.40;0.90;;;;;;;;;;4826613;29;34037;-68
2021/11/10 06:13:32;;;;;;;;;;;;;;;;;;4825790;29;32610;-70
2021/11/10 06:15:59;;;;;;;1.73;1.05;;;;;;;;;;4826680;29;32554;-70
2021/11/10 06:18:26;;;;;;;3.22;1.15;;;;;;;;;;4826435;29;32436;-68
2021/11/10 06:20:52;;;;;;;1.30;0.95;;;;;;;;;;4825311;29;32415;-71
2021/11/10 06:23:20;;;;;;;3.90;0.95;;;;;;;;;;4823323;29;34012;-67
2021/11/10 06:25:48;;;;;;;1.55;1.08;;;;;;;;;;4823717;29;32615;-69
2021/11/10 06:28:14;;;;;;;3.83;0.93;;;;;;;;;;4823811;29;32532;-68
2021/11/10 06:30:41;;;;;;;2.13;0.93;;;;;;;;;;4823980;29;32443;-68
2021/11/10 06:33:08;;;;;;;0.88;0.65;;;;;;;;;;4823278;29;34317;-67
2021/11/10 06:35:35;;;;;;;1.67;0.88;;;;;;;;;;4823589;29;32575;-67
2021/11/10 06:38:02;;;;;;;4.40;1.23;;;;;;;;;;4823495;29;32330;-66
2021/11/10 06:40:30;;;;;;;1.02;0.93;;;;;;;;;;4824010;29;32493;-65
2021/11/10 06:42:57;;;;;;;1.38;1.02;;;;;;;;;;4824211;29;32466;-66
2021/11/10 06:45:23;;;;;;;1.92;1.02;;;;;;;;;;4821684;29;34874;-68
2021/11/10 06:47:50;;;;;;;1.65;1.05;;;;;;;;;;4828981;29;32417;-65
2021/11/10 06:50:17;;;;;;;2.00;0.85;;;;;;;;;;4825213;29;32355;-66
2021/11/10 06:52:44;;;;;;;1.88;0.68;;;;;;;;;;4825144;29;32341;-63
2021/11/10 06:55:11;;;;;;;2.80;0.65;;;;;;;;;;4826243;29;35261;-63
2021/11/10 06:57:39;;;;;;;0.93;0.63;;;;;;;;;;4828133;29;32391;-64
2021/11/10 07:00:10;;;;;;;2.10;0.93;;;;;;;;;;4829264;29;32404;-63
2021/11/10 07:02:37;;;;;;;1.65;1.05;;;;;;;;;;4826841;29;32582;-64
2021/11/10 07:05:04;;;;;;;5.35;0.93;;;;;;;;;;4827357;29;32468;-65
2021/11/10 07:07:31;;;;;;;1.48;0.63;;;;;;;;;;4826257;29;35044;-65
2021/11/10 07:09:58;;;;;;;2.17;1.10;;;;;;;;;;4826727;29;32642;-64
2021/11/10 07:12:24;;;;;;;2.78;1.02;;;;;;;;;;4810519;29;32454;-65
2021/11/10 07:14:53;;;;;;;2.22;0.82;;;;;;;;;;4826240;29;32433;-65
2021/11/10 07:17:20;;;;;;;2.90;0.90;;;;;;;;;;4827691;29;35026;-64
2021/11/10 07:19:47;;;;;;;1.42;1.10;;;;;;;;;;4829337;29;32546;-66
2021/11/10 07:22:14;;;;;;;2.97;0.85;;;;;;;;;;4827885;29;32534;-64
2021/11/10 07:24:40;;;;;;;1.63;1.10;;;;;;;;;;4829038;29;32415;-63
2021/11/10 07:27:07;;;;;;;2.30;1.35;;;;;;;;;;4829498;29;32373;-66
2021/11/10 07:29:34;;;;;;;2.78;0.90;;;;;;;;;;4827570;29;35303;-64
2021/11/10 07:32:03;;;;;;;1.63;0.85;;;;;;;;;;4827887;29;32524;-66
2021/11/10 07:34:29;;;;;;;2.30;0.93;;;;;;;;;;4829088;29;32530;-65
2021/11/10 07:36:56;;;;;;;1.60;0.75;;;;;;;;;;4828168;29;32357;-63
2021/11/10 07:39:23;;;;;;;1.40;0.93;;;;;;;;;;4828221;29;34694;-65
2021/11/10 07:41:51;;;;;;;0.98;0.88;;;;;;;;;;4828803;29;32377;-65
2021/11/10 07:44:17;;;;;;;2.45;1.02;;;;;;;;;;4828337;29;32522;-66
2021/11/10 07:47:04;;;;;;;3.80;0.85;;;;;;;;;;4828639;29;32561;-66
2021/11/10 07:49:32;;;;;;;14.38;1.38;;;;;;;;;;4827059;29;32606;-65
2021/11/10 07:52:00;;;;;;;2.42;1.10;;;;;;;;;;4825467;29;34582;-65
2021/11/10 07:54:27;;;;;;;0.95;0.88;;;;;;;;;;4817497;29;32902;-64
2021/11/10 07:56:54;;;;;;;2.97;1.23;;;;;;;;;;4826960;29;32559;-65
2021/11/10 07:59:20;;;;;;;1.42;1.13;;;;;;;;;;4827634;29;32484;-67
2021/11/10 08:01:47;;;;;;;3.10;1.13;;;;;;;;;;4821246;29;33948;-65
2021/11/10 08:04:14;;;;;;;1.15;1.02;;;;;;;;;;4828079;29;32520;-64
2021/11/10 08:06:42;;;;;;;2.88;1.35;;;;;;;;;;4827813;29;32587;-65
2021/11/10 08:09:08;;;;;;;2.60;1.10;;;;;;;;;;4826669;29;32511;-64
2021/11/10 08:11:35;;;;;;;2.05;1.40;;;;;;;;;;4829533;29;32258;-63
2021/11/10 08:14:02;;;;;;;2.95;1.35;;;;;;;;;;4829092;29;34726;-66
2021/11/10 08:16:28;;;;;;;;;;;;;;;;;;4828109;29;32525;-66
2021/11/10 08:18:55;;;;;;;1.35;0.82;;;;;;;;;;4826152;29;32598;-67
2021/11/10 08:21:22;;;;;;;3.13;1.35;;;;;;;;;;4827127;29;32380;-67
2021/11/10 08:23:50;;;;;;;2.13;1.02;;;;;;;;;;4824178;29;34751;-64
2021/11/10 08:26:17;;;;;;;2.78;1.30;;;;;;;;;;4825081;29;33772;-65
2021/11/10 08:28:44;;;;;;;1.67;1.20;;;;;;;;;;4824795;29;32448;-66
2021/11/10 08:31:10;;;;;;;;;;;;;;;;;;4824648;29;32563;-65
2021/11/10 08:33:37;;;;;;;1.95;1.02;;;;;;;;;;4824813;29;32373;-64
2021/11/10 08:36:04;;;;;;;2.95;1.17;;;;;;;;;;4825376;29;32290;-64
2021/11/10 08:38:31;;;;;;;1.77;0.93;;;;;;;;;;4825030;29;32600;-64
2021/11/10 08:40:59;;;;;;;3.03;1.13;;;;;;;;;;4824596;29;32346;-67
2021/11/10 08:43:26;;;;;;;2.78;1.08;;;;;;;;;;4825228;29;32556;-66
2021/11/10 08:45:55;;;;;;;3.72;0.70;;;;;;;;;;4824001;29;34072;-67
2021/11/10 08:48:23;;;;;;;4.50;1.25;;;;;;;;;;4821828;29;32585;-67
2021/11/10 08:50:50;;;;;;;1.15;0.95;;;;;;;;;;4822459;29;32261;-68
2021/11/10 08:53:19;;;;;;;2.78;0.85;;;;;;;;;;4823422;29;32504;-66
2021/11/10 08:55:47;;;;;;;1.05;0.73;;;;;;;;;;4825489;29;32496;-67
2021/11/10 08:58:16;;;;;;;1.52;0.68;;;;;;;;;;4809840;29;32569;-66
2021/11/10 09:00:44;;;;;;;7.47;1.20;;;;;;;;;;4826012;29;32459;-65
2021/11/10 09:03:10;;;;;;;3.20;1.58;;;;;;;;;;4827879;29;32576;-66
2021/11/10 09:05:39;;;;;;;30.20;7.07;;;;;;;;;;4821176;29;32437;-65
2021/11/10 09:08:05;;;;;;;22.13;4.03;;;;;;;;;;4826964;29;34529;-67
2021/11/10 09:10:35;;;;;;;19.80;3.70;;;;;;;;;;4826489;29;32437;-68
2021/11/10 09:13:05;;;;;;;11.82;3.05;;;;;;;;;;4822328;29;32475;-63
2021/11/10 09:15:33;;;;;;;16.55;3.25;;;;;;;;;;4826748;29;32455;-65
2021/11/10 09:18:02;;;;;;;9.15;2.50;;;;;;;;;;4827046;29;32630;-64
2021/11/10 09:20:29;;;;;;;6.90;1.92;;;;;;;;;;4826589;29;32449;-68
2021/11/10 09:22:57;;;;;;;11.45;1.88;;;;;;;;;;4826347;29;32502;-65
2021/11/10 09:25:27;;;;;;;7.30;1.42;;;;;;;;;;4828128;29;32464;-65
2021/11/10 09:27:55;;;;;;;7.63;1.52;;;;;;;;;;4826967;29;32889;-66
2021/11/10 09:30:23;;;;;;;3.50;1.63;;;;;;;;;;4825473;29;34199;-66
2021/11/10 09:32:53;;;;;;;4.75;1.55;;;;;;;;;;4826541;29;32591;-67
2021/11/10 09:35:23;;;;;;;3.40;1.38;;;;;;;;;;4824375;29;32781;-66
2021/11/10 09:37:52;;;;;;;2.45;1.23;;;;;;;;;;4825738;29;32412;-67
2021/11/10 09:40:23;;;;;;;4.40;1.52;;;;;;;;;;4825405;29;32443;-70
2021/11/10 09:42:50;;;;;;;8.05;1.52;;;;;;;;;;4826490;29;32484;-67
2021/11/10 09:45:19;;;;;;;2.78;1.42;;;;;;;;;;4825885;29;32544;-67
2021/11/10 09:47:47;;;;;;;4.15;1.55;;;;;;;;;;4827378;29;32586;-66
2021/11/10 09:50:18;;;;;;;6.10;1.50;;;;;;;;;;4826661;29;32361;-68
2021/11/10 09:52:45;;;;;;;4.22;2.17;;;;;;;;;;4826447;29;35413;-66
2021/11/10 09:55:14;;;;;;;3.55;1.35;;;;;;;;;;4808451;29;32555;-67
2021/11/10 09:57:42;;;;;;;2.88;1.15;;;;;;;;;;4807784;29;32581;-66
2021/11/10 10:00:12;;;;;;;4.45;1.55;;;;;;;;;;4807085;29;32505;-67
2021/11/10 10:02:40;;;;;;;4.03;1.58;;;;;;;;;;4807576;29;32473;-66
2021/11/10 10:05:08;;;;;;;3.40;1.33;;;;;;;;;;4808287;29;32394;-66
2021/11/10 10:07:36;;;;;;;2.63;1.10;;;;;;;;;;4804893;29;32364;-65
2021/11/10 10:10:04;;;;;;;2.58;1.17;;;;;;;;;;4808240;29;32381;-65
2021/11/10 10:12:31;;;;;;;6.22;2.00;;;;;;;;;;4808729;29;32551;-67
2021/11/10 10:14:57;;;;;;;2.45;1.23;;;;;;;;;;4802888;29;33988;-65
2021/11/10 10:17:37;;;;;;;1.38;1.27;;;;;;;;;;4807549;29;32378;-65
2021/11/10 10:20:07;;;;;;;4.55;1.02;;;;;;;;;;4807341;29;32463;-65
2021/11/10 10:22:35;;;;;;;2.65;0.93;;;;;;;;;;4804945;29;33256;-65
2021/11/10 10:25:02;;;;;;;2.80;1.13;;;;;;;;;;4810622;29;32537;-66
2021/11/10 10:27:33;;;;;;;4.75;0.93;;;;;;;;;;4810381;29;32474;-64
2021/11/10 10:30:25;;;;;;;2.88;0.88;;;;;;;;;;4810194;29;32340;-63
2021/11/10 10:32:54;;;;;;;2.33;1.30;;;;;;;;;;4809170;29;32551;-64
2021/11/10 10:35:35;;;;;;;2.95;1.20;;;;;;;;;;4804898;29;32715;-68
2021/11/10 10:38:07;;;;;;;1.98;1.25;;;;;;;;;;4809441;29;35556;-64
2021/11/10 10:40:35;;;;;;;3.20;1.02;;;;;;;;;;4809261;29;32637;-64
2021/11/10 10:43:03;;;;;;;2.38;0.85;;;;;;;;;;4808996;29;32527;-64
2021/11/10 10:45:34;;;;;;;1.90;0.98;;;;;;;;;;4809322;29;32739;-65
2021/11/10 10:48:04;;;;;;;1.35;0.80;;;;;;;;;;4810308;29;34615;-65
2021/11/10 10:50:42;;;;;;;0.93;0.77;;;;;;;;;;4809410;29;32619;-65
2021/11/10 10:53:15;;;;;;;1.52;1.00;;;;;;;;;;4811710;29;32398;-65
2021/11/10 10:55:45;;;;;;;1.02;0.65;;;;;;;;;;4810547;29;32375;-65
2021/11/10 10:58:30;;;;;;;1.50;0.98;;;;;;;;;;4809544;29;32523;-65
2021/11/10 11:00:58;;;;;;;1.30;1.20;;;;;;;;;;4810528;29;34715;-65
2021/11/10 11:03:28;;;;;;;1.65;1.02;;;;;;;;;;4769403;29;32380;-66
2021/11/10 11:05:59;;;;;;;11.13;1.73;;;;;;;;;;4830120;29;32413;-65
2021/11/10 11:08:32;;;;;;;2.47;1.10;;;;;;;;;;4828676;29;32396;-65
2021/11/10 11:12:53;;;;;;;11.85;3.53;;;;;;;;;;3736810;33;32573;-65
2021/11/10 11:17:04;;;;;;;9.05;2.42;;;;;;;;;;3927070;33;54439;-65
2021/11/10 11:20:49;;;;;;;6.93;1.90;;;;;;;;;;4262383;33;32619;-65
2021/11/10 11:23:17;;;;;;;4.70;2.38;;;;;;;;;;4901731;28;32549;-65
2021/11/10 11:44:27;;;;;;;2.33;0.80;;;;;;;;;;4264989;33;32540;-65
2021/11/10 11:46:54;;;;;;;2.58;0.90;;;;;;;;;;4909544;28;32400;-66
2021/11/10 11:49:20;;;;;;;4.82;0.73;;;;;;;;;;4819506;28;34402;-66
2021/11/10 11:51:47;;;;;;;2.17;1.23;;;;;;;;;;4727724;28;32778;-68
2021/11/10 11:54:15;;;;;;;2.17;0.93;;;;;;;;;;4900841;28;32923;-66
2021/11/10 11:56:43;;;;;;;6.82;1.75;;;;;;;;;;4888036;28;32602;-66
2021/11/10 11:59:10;;;;;;;2.60;0.98;;;;;;;;;;4909029;28;32597;-66
2021/11/10 12:01:39;;;;;;;2.58;1.30;;;;;;;;;;4908354;28;34227;-66
2021/11/10 12:04:11;;;;;;;3.03;1.40;;;;;;;;;;4908593;28;32491;-67
2021/11/10 12:06:51;;;;;;;1.75;1.40;;;;;;;;;;4909249;28;32645;-66
2021/11/10 12:09:20;;;;;;;1.92;0.90;;;;;;;;;;4909670;28;32368;-65
2021/11/10 12:11:52;;;;;;;1.55;1.00;;;;;;;;;;4908189;28;35178;-68
2021/11/10 12:14:21;;;;;;;3.55;1.15;;;;;;;;;;4909291;28;32474;-65
2021/11/10 12:17:01;;;;;;;2.30;1.58;;;;;;;;;;4910353;28;32559;-66
2021/11/10 12:19:31;;;;;;;;;;;;;;;;;;4909319;28;32410;-65
2021/11/10 12:22:03;;;;;;;2.70;1.40;;;;;;;;;;4908042;28;32338;-64
2021/11/10 12:24:42;;;;;;;5.75;1.10;;;;;;;;;;4907093;28;34343;-64
2021/11/10 12:27:21;;;;;;;2.05;1.20;;;;;;;;;;4906393;28;32534;-64
2021/11/10 12:29:59;;;;;;;2.35;0.77;;;;;;;;;;4906027;28;32507;-67
2021/11/10 12:32:47;;;;;;;2.80;1.00;;;;;;;;;;4906340;28;32532;-65
2021/11/10 12:35:35;;;;;;;1.55;1.45;;;;;;;;;;4905921;28;35065;-68
2021/11/10 12:38:04;;;;;;;1.95;1.15;;;;;;;;;;4906259;28;32557;-65
2021/11/10 12:40:32;;;;;;;3.83;1.40;;;;;;;;;;4906299;28;32602;-65
2021/11/10 12:43:13;;;;;;;1.88;1.00;;;;;;;;;;4906006;28;32450;-65
2021/11/10 12:45:42;;;;;;;3.00;1.10;;;;;;;;;;4905995;28;32474;-65
2021/11/10 12:48:28;;;;;;;3.40;1.35;;;;;;;;;;4906852;28;35500;-64
2021/11/10 12:50:56;;;;;;;2.33;1.15;;;;;;;;;;4906735;28;32559;-65
2021/11/10 12:53:37;;;;;;;2.30;0.93;;;;;;;;;;4905855;28;32412;-66
2021/11/10 12:56:05;;;;;;;3.42;1.50;;;;;;;;;;4891975;28;33143;-65
2021/11/10 12:58:35;;;;;;;2.78;1.42;;;;;;;;;;4892770;28;34637;-64
2021/11/10 13:01:07;;;;;;;1.75;1.48;;;;;;;;;;4892884;28;32477;-66
2021/11/10 13:03:37;;;;;;;2.88;1.13;;;;;;;;;;4893174;28;32954;-65
2021/11/10 13:06:09;;;;;;;4.97;1.67;;;;;;;;;;4892922;28;32668;-65
2021/11/10 13:09:01;;;;;;;2.22;1.13;;;;;;;;;;4894356;28;32508;-68
2021/11/10 13:11:30;;;;;;;2.40;1.10;;;;;;;;;;4893914;28;35185;-65
2021/11/10 13:14:07;;;;;;;2.50;0.98;;;;;;;;;;4894339;28;32661;-64
2021/11/10 13:16:34;;;;;;;7.45;1.42;;;;;;;;;;4893981;28;32422;-65
2021/11/10 13:19:03;;;;;;;2.67;1.13;;;;;;;;;;4895333;28;32424;-65
2021/11/10 13:21:29;;;;;;;1.88;1.15;;;;;;;;;;4895241;28;34031;-64
2021/11/10 13:24:09;;;;;;;4.18;1.30;;;;;;;;;;4893835;28;32742;-65
2021/11/10 13:26:36;;;;;;;1.45;1.33;;;;;;;;;;4893913;28;32298;-67
2021/11/10 13:29:05;;;;;;;2.38;1.05;;;;;;;;;;4895578;28;32543;-65
2021/11/10 13:31:31;;;;;;;1.90;1.00;;;;;;;;;;4889047;28;32457;-65
2021/11/10 13:33:58;;;;;;;2.88;1.00;;;;;;;;;;4892484;28;34786;-66
2021/11/10 13:36:28;;;;;;;5.75;1.67;;;;;;;;;;4894550;28;32542;-65
2021/11/10 13:39:06;;;;;;;2.95;1.02;;;;;;;;;;4889062;28;32388;-65
2021/11/10 13:41:35;;;;;;;1.48;1.10;;;;;;;;;;4893397;28;32468;-64
2021/11/10 13:44:08;;;;;;;2.30;1.20;;;;;;;;;;4894519;28;34168;-64
2021/11/10 13:46:38;;;;;;;2.58;1.25;;;;;;;;;;4895400;28;32831;-67
2021/11/10 13:49:10;;;;;;;4.15;1.00;;;;;;;;;;4896180;28;32362;-66
2021/11/10 13:51:40;;;;;;;2.95;1.20;;;;;;;;;;4894897;28;32440;-65
2021/11/10 13:54:10;;;;;;;1.38;1.00;;;;;;;;;;4895013;28;32389;-66
2021/11/10 13:56:51;;;;;;;5.75;1.33;;;;;;;;;;4894789;28;35576;-67
2021/11/10 13:59:21;;;;;;;3.15;1.30;;;;;;;;;;4895372;28;32567;-65
2021/11/10 14:01:57;;;;;;;2.67;1.17;;;;;;;;;;4894306;28;32450;-64
2021/11/10 14:04:28;;;;;;;3.80;1.42;;;;;;;;;;4893655;28;32454;-66
2021/11/10 14:07:05;;;;;;;2.03;0.93;;;;;;;;;;4893442;28;34749;-65
2021/11/10 14:09:34;;;;;;;2.17;0.90;;;;;;;;;;4893604;28;32809;-64
2021/11/10 14:12:21;;;;;;;3.65;1.00;;;;;;;;;;4891818;28;32456;-65
2021/11/10 14:14:52;;;;;;;1.75;1.20;;;;;;;;;;4894329;28;32494;-68
2021/11/10 14:17:19;;;;;;;2.38;0.98;;;;;;;;;;4895346;28;32488;-67
2021/11/10 14:19:50;;;;;;;1.73;1.10;;;;;;;;;;4892855;28;34638;-67
2021/11/10 14:22:24;;;;;;;5.15;1.30;;;;;;;;;;4894993;28;32620;-66
2021/11/10 14:24:50;;;;;;;5.30;1.65;;;;;;;;;;4894483;28;32771;-67
2021/11/10 14:27:17;;;;;;;3.60;1.02;;;;;;;;;;4894897;28;32346;-66
2021/11/10 14:29:44;;;;;;;2.33;1.65;;;;;;;;;;4894816;28;34649;-68
2021/11/10 14:32:11;;;;;;;2.88;1.33;;;;;;;;;;4896895;28;32468;-67
2021/11/10 14:34:39;;;;;;;3.60;1.25;;;;;;;;;;4893741;28;32522;-66
2021/11/10 14:37:24;;;;;;;2.33;1.58;;;;;;;;;;4895679;28;32464;-66
2021/11/10 14:39:50;;;;;;;2.60;0.90;;;;;;;;;;4895880;28;32561;-70
2021/11/10 14:42:35;;;;;;;2.17;0.77;;;;;;;;;;4888319;28;34161;-66
2021/11/10 14:45:17;;;;;;;4.43;1.48;;;;;;;;;;4893701;28;32476;-65
2021/11/10 14:47:52;;;;;;;3.15;1.30;;;;;;;;;;4888646;28;32411;-65
2021/11/10 14:50:20;;;;;;;4.65;1.40;;;;;;;;;;4895045;28;32898;-65
2021/11/10 14:53:13;;;;;;;3.67;1.30;;;;;;;;;;4894958;28;34155;-67
2021/11/10 14:55:43;;;;;;;2.80;1.33;;;;;;;;;;4894260;28;32712;-67
2021/11/10 14:58:16;;;;;;;3.35;1.27;;;;;;;;;;4893782;28;32455;-65
2021/11/10 15:00:44;;;;;;;3.90;1.50;;;;;;;;;;4893829;28;34532;-66
2021/11/10 15:03:19;;;;;;;3.88;1.40;;;;;;;;;;4892217;28;33210;-69
2021/11/10 15:05:46;;;;;;;2.10;1.38;;;;;;;;;;4894794;28;35561;-66
2021/11/10 15:08:14;;;;;;;3.25;1.55;;;;;;;;;;4894043;28;32415;-67
2021/11/10 15:10:53;;;;;;;1.92;1.15;;;;;;;;;;4894029;28;32440;-69
2021/11/10 15:13:21;;;;;;;3.63;1.25;;;;;;;;;;4892963;28;32637;-70
2021/11/10 15:15:51;;;;;;;6.15;1.30;;;;;;;;;;4892903;28;35818;-67
2021/11/10 15:18:22;;;;;;;3.03;1.42;;;;;;;;;;4891646;28;32542;-69